createdAt,value
2023-03-18T00:18:38.158Z,18.40
2023-03-18T00:21:57.909Z,16.70
2023-03-18T00:24:32.062Z,16.50
2023-03-18T00:27:02.509Z,17.30
2023-03-18T00:29:30.501Z,17.80
2023-03-18T00:32:04.207Z,15.90
2023-03-18T00:34:51.209Z,15.90
2023-03-18T00:37:31.121Z,14.80
2023-03-18T00:40:07.210Z,15.10
2023-03-18T00:43:08.125Z,15.90
2023-03-18T00:46:00.704Z,14.40
2023-03-18T00:52:25.526Z,15.90
2023-03-18T00:56:52.853Z,18.30
2023-03-18T00:59:30.589Z,15.70
2023-03-18T01:02:25.421Z,17.50
2023-03-18T01:05:29.051Z,16.30
2023-03-18T01:11:04.253Z,14.80
2023-03-18T01:15:32.347Z,14.40
2023-03-18T01:29:27.919Z,16.60
2023-03-18T01:32:35.002Z,15.80
2023-03-18T01:59:56.097Z,13.30
2023-03-18T02:10:13.502Z,14.80
2023-03-18T02:13:37.667Z,14.70
2023-03-18T02:17:19.013Z,12.90
2023-03-18T02:31:59.399Z,10.40
2023-03-18T02:34:52.078Z,10.90
2023-03-18T02:37:38.204Z,11.50
2023-03-18T02:40:50.663Z,11.10
2023-03-18T02:43:32.828Z,11.50
2023-03-18T02:46:44.747Z,10.80
2023-03-18T02:50:13.157Z,11.20
2023-03-18T02:52:57.332Z,9.50
2023-03-18T02:55:48.039Z,11.20
2023-03-18T02:58:19.685Z,9.50
2023-03-18T03:00:49.496Z,11.40
2023-03-18T03:03:18.721Z,10.70
2023-03-18T03:05:53.315Z,10.50
2023-03-18T03:08:25.005Z,11.70
2023-03-18T03:10:54.933Z,10.70
2023-03-18T03:13:27.134Z,11.60
2023-03-18T03:15:58.109Z,11.40
2023-03-18T03:18:27.059Z,12.30
2023-03-18T03:20:58.303Z,12.10
2023-03-18T03:23:28.135Z,13.20
2023-03-18T03:26:04.070Z,11.10
2023-03-18T03:28:56.612Z,10.90
2023-03-18T03:31:41.376Z,9.60
2023-03-18T03:44:44.015Z,13.80
2023-03-18T03:47:24.514Z,15.00
2023-03-18T03:50:18.643Z,14.70
2023-03-18T03:53:18.504Z,12.50
2023-03-18T03:58:47.333Z,11.40
2023-03-18T04:04:03.268Z,10.70
2023-03-18T04:06:34.605Z,12.70
2023-03-18T04:12:45.228Z,19.10
2023-03-18T04:15:32.199Z,22.50
2023-03-18T04:18:13.006Z,21.40
2023-03-18T04:21:05.574Z,24.20
2023-03-18T04:23:53.573Z,21.60
2023-03-18T04:29:52.030Z,19.20
2023-03-18T04:32:47.918Z,20.30
2023-03-18T04:35:54.255Z,17.20
2023-03-18T04:38:25.746Z,19.10
2023-03-18T04:41:04.626Z,20.00
2023-03-18T04:43:56.463Z,24.40
2023-03-18T04:46:34.325Z,24.80
2023-03-18T04:49:05.096Z,27.40
2023-03-18T04:51:34.119Z,27.70
2023-03-18T04:54:22.669Z,28.40
2023-03-18T04:56:53.515Z,27.20
2023-03-18T04:59:28.814Z,21.90
2023-03-18T05:01:58.612Z,20.60
2023-03-18T05:06:01.007Z,20.50
2023-03-18T05:09:08.960Z,18.80
2023-03-18T05:11:49.801Z,17.30
2023-03-18T05:14:44.223Z,15.10
2023-03-18T05:17:59.983Z,16.00
2023-03-18T05:20:38.339Z,12.90
2023-03-18T05:23:44.532Z,11.50
2023-03-18T05:26:24.188Z,12.30
2023-03-18T05:29:00.583Z,13.00
2023-03-18T05:39:55.019Z,13.30
2023-03-18T05:42:27.821Z,11.40
2023-03-18T05:45:02.408Z,11.90
2023-03-18T05:47:38.085Z,10.80
2023-03-18T05:50:14.172Z,11.90
2023-03-18T05:52:44.899Z,11.70
2023-03-18T05:55:20.802Z,11.60
2023-03-18T05:57:50.840Z,12.10
2023-03-18T06:00:20.321Z,10.40
2023-03-18T06:02:51.096Z,10.20
2023-03-18T06:05:21.561Z,8.90
2023-03-18T06:07:50.405Z,10.90
2023-03-18T06:10:19.881Z,10.30
2023-03-18T06:12:51.707Z,12.00
2023-03-18T06:15:23.833Z,10.00
2023-03-18T06:17:54.510Z,10.10
2023-03-18T06:32:10.818Z,11.10
2023-03-18T06:58:45.085Z,7.60
2023-03-18T17:34:03.763Z,9.50
2023-03-18T18:16:08.876Z,8.70
2023-03-18T18:18:41.411Z,7.00
2023-03-18T18:24:37.174Z,7.30
2023-03-18T18:27:19.949Z,13.30
2023-03-18T18:33:42.676Z,7.50
2023-03-18T18:47:50.113Z,6.40
2023-03-18T18:50:38.113Z,6.50
2023-03-18T19:15:47.457Z,7.70
2023-03-18T19:36:54.005Z,12.50
2023-03-18T19:39:40.914Z,12.50
2023-03-18T20:06:32.718Z,5.50
2023-03-18T20:44:22.146Z,6.60
2023-03-18T20:53:52.984Z,6.90
2023-03-18T20:59:27.409Z,7.10
2023-03-18T21:01:56.333Z,8.60
2023-03-18T21:04:27.392Z,7.70
2023-03-18T21:09:55.961Z,8.20
2023-03-18T21:18:40.566Z,6.90
2023-03-18T21:21:33.009Z,7.00
2023-03-18T21:24:01.954Z,5.90
2023-03-18T21:29:22.710Z,6.00
2023-03-18T21:31:54.176Z,6.10
2023-03-18T21:34:25.719Z,6.60
2023-03-18T21:36:59.488Z,5.60
2023-03-18T21:39:36.561Z,5.50
2023-03-18T21:48:09.255Z,5.10
2023-03-18T21:54:00.132Z,3.50
2023-03-18T21:56:34.017Z,4.20
2023-03-18T21:59:03.462Z,4.40
2023-03-18T22:01:39.209Z,3.10
2023-03-18T22:04:08.600Z,3.00
2023-03-18T22:06:38.794Z,2.70
2023-03-18T22:09:14.708Z,2.80
2023-03-18T22:12:06.684Z,2.40
2023-03-18T22:14:39.357Z,2.90
2023-03-18T22:17:33.519Z,2.70
2023-03-18T22:20:03.419Z,2.20
2023-03-18T22:22:37.004Z,2.20
2023-03-18T22:25:42.612Z,2.20
2023-03-18T22:28:15.218Z,2.20
2023-03-18T22:30:46.525Z,2.40
2023-03-18T22:33:20.407Z,2.70
2023-03-18T22:35:49.123Z,2.20
2023-03-18T22:38:21.738Z,2.10
2023-03-18T22:40:53.387Z,2.20
2023-03-18T22:43:27.967Z,2.00
2023-03-18T22:45:59.034Z,1.90
2023-03-18T22:48:29.654Z,1.80
2023-03-18T22:51:00.112Z,2.60
2023-03-18T22:53:39.762Z,1.80
2023-03-18T22:56:14.065Z,2.40
2023-03-18T22:58:44.073Z,2.40
2023-03-18T23:01:28.882Z,2.20
2023-03-18T23:04:05.392Z,2.00
2023-03-18T23:06:35.514Z,2.30
2023-03-18T23:09:06.260Z,2.50
2023-03-18T23:11:34.937Z,3.20
2023-03-18T23:14:04.934Z,1.90
2023-03-18T23:16:34.083Z,2.40
2023-03-18T23:19:02.813Z,2.00
2023-03-18T23:21:37.577Z,2.60
2023-03-18T23:24:06.652Z,1.70
2023-03-18T23:26:36.964Z,2.50
2023-03-18T23:29:06.879Z,3.00
2023-03-18T23:31:35.803Z,2.40
2023-03-18T23:34:07.997Z,2.10
2023-03-18T23:36:37.651Z,2.50
2023-03-18T23:39:10.645Z,2.30
2023-03-18T23:41:42.825Z,2.20
2023-03-18T23:44:11.530Z,2.20
2023-03-18T23:46:42.483Z,2.10
2023-03-18T23:49:13.992Z,2.20
2023-03-18T23:51:45.275Z,2.30
2023-03-18T23:54:13.960Z,2.10
2023-03-18T23:56:54.823Z,2.10
2023-03-18T23:59:26.196Z,2.10
